sensor_id;sensor_type;location;lat;lon;timestamp;P1;durP1;ratioP1;P2;durP2;ratioP2
4565;SDS011;2295;51.050;14.608;2024-01-10T00:01:49;66.30;;;23.23;;
4565;SDS011;2295;51.050;14.608;2024-01-10T00:04:19;72.93;;;23.13;;
4565;SDS011;2295;51.050;14.608;2024-01-10T00:06:47;74.40;;;24.40;;
4565;SDS011;2295;51.050;14.608;2024-01-10T00:09:16;61.55;;;23.23;;
4565;SDS011;2295;51.050;14.608;2024-01-10T00:11:44;63.45;;;24.23;;
4565;SDS011;2295;51.050;14.608;2024-01-10T00:15:05;61.47;;;23.85;;
4565;SDS011;2295;51.050;14.608;2024-01-10T00:17:34;68.32;;;24.50;;
4565;SDS011;2295;51.050;14.608;2024-01-10T00:20:07;69.18;;;23.55;;
4565;SDS011;2295;51.050;14.608;2024-01-10T00:22:36;62.33;;;23.83;;
4565;SDS011;2295;51.050;14.608;2024-01-10T00:25:04;62.58;;;23.30;;
4565;SDS011;2295;51.050;14.608;2024-01-10T00:27:33;72.53;;;23.02;;
4565;SDS011;2295;51.050;14.608;2024-01-10T00:30:02;64.25;;;23.50;;
4565;SDS011;2295;51.050;14.608;2024-01-10T00:32:31;62.80;;;23.50;;
4565;SDS011;2295;51.050;14.608;2024-01-10T00:35:00;57.90;;;21.35;;
4565;SDS011;2295;51.050;14.608;2024-01-10T00:37:31;63.72;;;23.65;;
4565;SDS011;2295;51.050;14.608;2024-01-10T00:39:59;60.72;;;21.20;;
4565;SDS011;2295;51.050;14.608;2024-01-10T00:42:28;58.28;;;23.23;;
4565;SDS011;2295;51.050;14.608;2024-01-10T00:44:57;58.25;;;22.13;;
4565;SDS011;2295;51.050;14.608;2024-01-10T00:47:28;64.50;;;22.25;;
4565;SDS011;2295;51.050;14.608;2024-01-10T00:49:56;50.50;;;20.90;;
4565;SDS011;2295;51.050;14.608;2024-01-10T00:52:47;62.78;;;21.70;;
4565;SDS011;2295;51.050;14.608;2024-01-10T00:55:23;60.03;;;21.58;;
4565;SDS011;2295;51.050;14.608;2024-01-10T00:58:12;71.05;;;23.20;;
4565;SDS011;2295;51.050;14.608;2024-01-10T01:00:41;59.40;;;22.27;;
4565;SDS011;2295;51.050;14.608;2024-01-10T01:03:09;59.22;;;21.40;;
4565;SDS011;2295;51.050;14.608;2024-01-10T01:05:38;63.33;;;22.20;;
4565;SDS011;2295;51.050;14.608;2024-01-10T01:08:15;58.58;;;21.83;;
4565;SDS011;2295;51.050;14.608;2024-01-10T01:10:49;65.53;;;21.30;;
4565;SDS011;2295;51.050;14.608;2024-01-10T01:13:18;61.00;;;21.35;;
4565;SDS011;2295;51.050;14.608;2024-01-10T01:15:47;51.58;;;19.40;;
4565;SDS011;2295;51.050;14.608;2024-01-10T01:18:15;50.28;;;19.08;;
4565;SDS011;2295;51.050;14.608;2024-01-10T01:20:45;52.30;;;19.42;;
4565;SDS011;2295;51.050;14.608;2024-01-10T01:23:43;69.35;;;20.42;;
4565;SDS011;2295;51.050;14.608;2024-01-10T01:26:15;62.55;;;20.52;;
4565;SDS011;2295;51.050;14.608;2024-01-10T01:28:43;59.83;;;21.40;;
4565;SDS011;2295;51.050;14.608;2024-01-10T01:31:12;53.55;;;20.52;;
4565;SDS011;2295;51.050;14.608;2024-01-10T01:33:41;51.15;;;19.60;;
4565;SDS011;2295;51.050;14.608;2024-01-10T01:36:09;58.97;;;21.42;;
4565;SDS011;2295;51.050;14.608;2024-01-10T01:38:38;53.83;;;21.00;;
4565;SDS011;2295;51.050;14.608;2024-01-10T01:41:08;52.40;;;20.58;;
4565;SDS011;2295;51.050;14.608;2024-01-10T01:43:39;66.00;;;21.65;;
4565;SDS011;2295;51.050;14.608;2024-01-10T01:46:08;62.10;;;20.65;;
4565;SDS011;2295;51.050;14.608;2024-01-10T01:48:38;56.35;;;20.10;;
4565;SDS011;2295;51.050;14.608;2024-01-10T01:51:07;56.25;;;20.33;;
4565;SDS011;2295;51.050;14.608;2024-01-10T01:53:37;53.85;;;18.83;;
4565;SDS011;2295;51.050;14.608;2024-01-10T01:56:07;51.35;;;19.75;;
